Time;durP1;ratioP1;P1;durP2;ratioP2;P2;SDS_P1;SDS_P2;PMS_P1;PMS_P2;Temp;Humidity;BMP_temperature;BMP_pressure;BME280_temperature;BME280_humidity;BME280_pressure;Samples;Min_cycle;Max_cycle;Signal;HPM_P1;HPM_P2
2021/06/23 00:02:29;;;;;;;0.20;0.10;;;21.40;99.90;;;;;;21067546;28;20235;-69
2021/06/23 00:12:33;;;;;;;0.30;0.20;;;21.20;99.90;;;;;;21066933;28;20271;-69
2021/06/23 00:22:38;;;;;;;0.20;0.20;;;21.20;99.90;;;;;;21042000;28;20224;-69
2021/06/23 00:32:46;;;;;;;0.63;0.50;;;21.30;99.90;;;;;;20998895;28;20275;-69
2021/06/23 00:42:53;;;;;;;0.20;0.10;;;21.30;99.90;;;;;;20997785;28;20232;-68
2021/06/23 00:52:57;;;;;;;0.50;0.30;;;21.60;99.90;;;;;;20996585;28;20280;-68
2021/06/23 01:03:03;;;;;;;1.03;0.70;;;21.50;99.90;;;;;;21007045;23;20717;-71
2021/06/23 01:13:33;;;;;;;1.30;0.60;;;21.30;99.90;;;;;;20993839;28;20653;-72
2021/06/23 01:23:38;;;;;;;0.60;0.30;;;21.00;99.90;;;;;;21027266;28;20234;-71
2021/06/23 01:33:43;;;;;;;1.60;1.17;;;20.70;99.90;;;;;;21075154;28;20257;-71
2021/06/23 01:43:48;;;;;;;5.37;1.03;;;20.70;99.90;;;;;;21073734;28;20220;-71
2021/06/23 01:53:51;;;;;;;0.40;0.20;;;20.50;99.90;;;;;;21073519;28;20196;-71
2021/06/23 02:04:10;;;;;;;0.30;0.30;;;20.20;99.90;;;;;;20992440;22;20639;-68
2021/06/23 02:14:33;;;;;;;0.20;0.20;;;19.80;99.90;;;;;;20907874;28;20194;-68
2021/06/23 02:24:38;;;;;;;0.43;0.43;;;19.70;99.90;;;;;;20906423;28;20221;-68
2021/06/23 02:34:45;;;;;;;0.60;0.30;;;19.70;99.90;;;;;;20905574;28;20232;-69
2021/06/23 02:44:50;;;;;;;1.03;0.87;;;19.80;99.90;;;;;;20904440;28;20232;-68
2021/06/23 02:54:54;;;;;;;0.63;0.37;;;20.00;99.90;;;;;;20905136;28;20211;-68
2021/06/23 03:04:59;;;;;;;0.30;0.30;;;20.40;99.90;;;;;;20914158;23;20237;-73
2021/06/23 03:15:03;;;;;;;7.00;0.73;;;20.40;99.90;;;;;;20901052;28;20280;-73
2021/06/23 03:25:10;;;;;;;0.27;0.27;;;20.70;99.90;;;;;;20899796;28;20787;-72
2021/06/23 03:35:13;;;;;;;0.20;0.20;;;20.90;99.90;;;;;;20900051;28;20200;-70
2021/06/23 03:45:19;;;;;;;0.50;0.47;;;21.30;99.90;;;;;;20898962;28;20312;-70
2021/06/23 03:55:25;;;;;;;0.23;0.23;;;21.30;99.90;;;;;;20903960;28;20300;-70
2021/06/23 04:05:30;;;;;;;0.20;0.20;;;21.30;99.90;;;;;;20929786;22;20315;-69
2021/06/23 04:15:34;;;;;;;0.37;0.27;;;21.10;99.90;;;;;;20916394;28;20349;-69
2021/06/23 04:25:39;;;;;;;0.60;0.60;;;21.10;99.90;;;;;;20971011;28;20212;-68
2021/06/23 04:35:43;;;;;;;6.97;0.53;;;21.00;99.90;;;;;;20998671;28;20205;-69
2021/06/23 04:45:48;;;;;;;7.83;0.93;;;20.90;99.90;;;;;;20996751;28;20220;-68
2021/06/23 04:55:53;;;;;;;0.90;0.57;;;20.80;99.90;;;;;;20996820;28;20222;-69
2021/06/23 05:05:59;;;;;;;0.57;0.33;;;20.90;99.90;;;;;;20994703;28;20714;-69
2021/06/23 05:16:04;;;;;;;0.20;0.20;;;21.20;99.90;;;;;;20994382;28;20208;-68
2021/06/23 05:26:09;;;;;;;0.30;0.23;;;21.30;99.90;;;;;;20923729;28;20232;-69
2021/06/23 05:36:13;;;;;;;1.00;0.60;;;21.40;99.90;;;;;;20912943;28;20193;-69
2021/06/23 05:46:18;;;;;;;0.20;0.20;;;21.40;99.90;;;;;;20909523;28;20253;-70
2021/06/23 05:56:22;;;;;;;0.40;0.30;;;21.40;99.90;;;;;;20908479;28;20608;-71
2021/06/23 06:06:27;;;;;;;0.50;0.50;;;21.50;99.90;;;;;;20964856;28;20256;-67
2021/06/23 06:16:32;;;;;;;0.27;0.23;;;21.30;99.90;;;;;;20988411;28;20189;-67
2021/06/23 06:26:37;;;;;;;0.57;0.57;;;21.20;99.90;;;;;;21002977;28;20224;-70
2021/06/23 06:36:41;;;;;;;0.60;0.57;;;21.10;99.90;;;;;;20988773;28;20271;-67
2021/06/23 06:46:46;;;;;;;0.67;0.67;;;20.80;99.90;;;;;;20986974;28;20266;-67
2021/06/23 06:56:49;;;;;;;0.50;0.50;;;21.00;99.90;;;;;;20984956;28;20193;-69
2021/06/23 07:06:55;;;;;;;0.43;0.30;;;21.30;99.90;;;;;;20983555;28;20262;-67
2021/06/23 07:16:59;;;;;;;0.30;0.30;;;21.90;99.90;;;;;;20974003;28;20662;-68
2021/06/23 07:27:05;;;;;;;0.97;0.83;;;22.50;99.90;;;;;;20965213;28;20239;-70
2021/06/23 07:37:09;;;;;;;0.20;0.10;;;23.00;99.90;;;;;;20982723;28;20662;-67
2021/06/23 07:47:17;;;;;;;0.20;0.20;;;22.90;99.90;;;;;;20982881;28;20578;-68
2021/06/23 08:18:06;;;;;;;1.10;0.80;;;21.80;99.90;;;;;;20982536;28;20657;-66
2021/06/23 08:28:11;;;;;;;0.20;0.10;;;21.30;99.90;;;;;;20906453;28;20256;-69
2021/06/23 08:38:14;;;;;;;2.30;0.97;;;20.70;99.90;;;;;;20896420;28;20198;-66
2021/06/23 08:48:19;;;;;;;1.50;0.40;;;20.00;99.90;;;;;;20995718;28;20224;-68
2021/06/23 08:58:23;;;;;;;0.30;0.10;;;19.60;99.90;;;;;;20995202;28;21076;-66
2021/06/23 09:08:37;;;;;;;0.30;0.23;;;19.10;99.90;;;;;;20995672;28;20376;-69
2021/06/23 09:18:42;;;;;;;1.90;0.80;;;19.30;99.90;;;;;;20993713;28;20279;-69
2021/06/23 09:29:05;;;;;;;0.20;0.10;;;19.30;99.90;;;;;;20992665;28;20551;-69
2021/06/23 09:39:09;;;;;;;0.30;0.20;;;19.80;99.90;;;;;;20990735;28;20220;-70
2021/06/23 09:49:16;;;;;;;0.20;0.20;;;20.00;99.90;;;;;;20992115;28;20236;-69
2021/06/23 09:59:31;;;;;;;0.20;0.20;;;20.10;99.90;;;;;;20989868;28;20199;-68
2021/06/23 10:09:36;;;;;;;0.20;0.10;;;19.60;99.90;;;;;;20989795;28;20250;-69
2021/06/23 10:19:41;;;;;;;0.70;0.67;;;19.30;99.90;;;;;;20982533;28;20202;-66
2021/06/23 10:29:53;;;;;;;5.60;1.63;;;19.20;99.90;;;;;;20904820;28;20213;-67
2021/06/23 10:39:59;;;;;;;0.20;0.20;;;19.70;99.90;;;;;;20903303;28;20192;-67
2021/06/23 10:50:06;;;;;;;0.60;0.30;;;20.00;99.90;;;;;;20903695;28;20225;-67
2021/06/23 11:00:31;;;;;;;0.20;0.10;;;20.20;99.90;;;;;;20902972;28;20280;-66
2021/06/23 11:10:41;;;;;;;1.27;0.60;;;19.80;99.90;;;;;;20905274;28;20316;-66
2021/06/23 11:20:44;;;;;;;0.30;0.27;;;19.80;99.90;;;;;;20917293;28;20302;-66
2021/06/23 11:31:10;;;;;;;0.67;0.30;;;20.50;99.90;;;;;;20965111;28;20212;-67
2021/06/23 11:41:15;;;;;;;0.43;0.23;;;21.50;99.90;;;;;;20982736;28;20238;-67
2021/06/23 11:51:25;;;;;;;0.43;0.10;;;22.60;99.90;;;;;;20981781;28;20235;-67
2021/06/23 12:01:28;;;;;;;0.85;0.75;;;23.90;99.90;;;;;;20981597;28;20236;-68
2021/06/23 12:11:34;;;;;;;7.30;0.20;;;25.40;99.90;;;;;;20980706;28;20742;-71
2021/06/23 12:21:37;;;;;;;0.30;0.20;;;25.40;99.90;;;;;;20955599;28;20351;-69
2021/06/23 12:31:42;;;;;;;11.90;0.60;;;26.70;99.90;;;;;;20915055;28;20207;-69
2021/06/23 12:41:46;;;;;;;0.40;0.20;;;27.10;99.90;;;;;;20914621;28;20635;-69
2021/06/23 12:51:51;;;;;;;0.30;0.30;;;26.90;99.90;;;;;;20916218;28;20304;-70
2021/06/23 13:01:55;;;;;;;0.30;0.10;;;26.60;99.90;;;;;;20913582;28;20275;-69
2021/06/23 13:12:01;;;;;;;1.67;0.70;;;26.90;99.90;;;;;;20918062;28;20197;-68
2021/06/23 13:22:05;;;;;;;0.85;0.65;;;29.00;99.90;;;;;;20935655;28;20197;-69
2021/06/23 13:32:14;;;;;;;0.57;0.38;;;27.60;99.90;;;;;;20992004;28;20200;-68
2021/06/23 13:42:19;;;;;;;0.63;0.38;;;31.40;99.90;;;;;;20990227;28;20216;-68
2021/06/23 13:52:24;;;;;;;0.60;0.57;;;31.70;99.90;;;;;;20990391;28;20197;-70
2021/06/23 14:02:28;;;;;;;3.05;2.80;;;32.70;99.90;;;;;;20988280;28;20243;-67
2021/06/23 14:12:34;;;;;;;0.52;0.35;;;32.50;99.90;;;;;;20989182;28;20220;-66
2021/06/23 14:22:38;;;;;;;1.10;0.60;;;32.60;99.90;;;;;;20923470;28;20574;-67
2021/06/23 14:32:44;;;;;;;1.38;0.60;;;33.30;99.90;;;;;;20904443;28;20190;-68
2021/06/23 14:42:48;;;;;;;0.50;0.40;;;33.00;99.90;;;;;;20883754;28;20225;-68
2021/06/23 14:52:53;;;;;;;1.98;1.23;;;33.40;99.90;;;;;;20903622;28;20611;-67
2021/06/23 15:02:56;;;;;;;1.50;1.20;;;32.90;99.90;;;;;;20901441;28;20248;-67
2021/06/23 15:13:03;;;;;;;0.77;0.50;;;33.50;99.90;;;;;;20900717;28;20201;-66
2021/06/23 15:23:07;;;;;;;1.33;1.17;;;33.40;99.90;;;;;;20933315;28;20221;-68
2021/06/23 15:33:12;;;;;;;4.60;0.93;;;32.30;99.90;;;;;;20982132;28;20296;-68
2021/06/23 15:43:17;;;;;;;0.43;0.30;;;32.50;99.90;;;;;;20982422;28;20243;-67
2021/06/23 15:53:22;;;;;;;0.60;0.25;;;31.00;99.90;;;;;;20981211;28;20288;-67
2021/06/23 16:03:26;;;;;;;2.47;0.38;;;31.30;99.90;;;;;;20986498;28;20332;-68
2021/06/23 16:13:31;;;;;;;0.30;0.15;;;30.90;99.90;;;;;;20983665;28;20566;-68
2021/06/23 16:23:38;;;;;;;0.30;0.28;;;30.20;99.90;;;;;;20942261;28;20312;-69
2021/06/23 16:33:43;;;;;;;0.35;0.20;;;30.60;99.90;;;;;;20879409;28;20289;-67
2021/06/23 16:43:46;;;;;;;0.40;0.30;;;31.50;99.90;;;;;;20877314;28;20543;-66
2021/06/23 16:53:51;;;;;;;0.50;0.30;;;30.70;99.90;;;;;;20895360;28;20599;-69
2021/06/23 17:03:55;;;;;;;0.73;0.70;;;30.50;99.90;;;;;;20901090;28;20264;-66
2021/06/23 17:14:00;;;;;;;0.30;0.30;;;26.90;99.90;;;;;;20910644;28;20201;-65
2021/06/23 17:24:06;;;;;;;0.38;0.38;;;25.70;99.90;;;;;;20951324;28;20253;-67
2021/06/23 17:34:12;;;;;;;0.35;0.30;;;25.50;99.90;;;;;;20991817;28;20595;-67
2021/06/23 17:44:15;;;;;;;1.55;0.30;;;24.90;99.90;;;;;;20990889;28;20228;-66
2021/06/23 17:54:20;;;;;;;0.22;0.20;;;24.40;99.90;;;;;;20995536;28;20316;-70
2021/06/23 18:04:25;;;;;;;0.43;0.40;;;24.50;99.90;;;;;;20989219;28;20322;-66
2021/06/23 18:14:31;;;;;;;0.30;0.20;;;24.30;99.90;;;;;;20987280;28;20201;-67
2021/06/23 18:24:35;;;;;;;1.23;1.13;;;26.80;99.90;;;;;;20942136;28;20686;-67
2021/06/23 18:34:41;;;;;;;0.68;0.63;;;28.00;99.90;;;;;;20903321;28;20198;-67
2021/06/23 18:44:45;;;;;;;0.40;0.30;;;27.10;99.90;;;;;;20900650;28;20231;-67
2021/06/23 18:54:50;;;;;;;0.88;0.63;;;26.80;99.90;;;;;;20902192;28;20606;-67
2021/06/23 19:04:59;;;;;;;0.35;0.35;;;25.80;99.90;;;;;;20903179;28;20237;-67
2021/06/23 19:15:05;;;;;;;1.55;0.88;;;23.90;99.90;;;;;;20900353;28;20190;-68
2021/06/23 19:25:10;;;;;;;3.23;0.57;;;23.10;99.90;;;;;;20949663;28;20307;-68
2021/06/23 19:35:17;;;;;;;0.60;0.60;;;22.80;99.90;;;;;;20980207;28;20283;-68
2021/06/23 19:45:21;;;;;;;0.43;0.30;;;22.70;99.90;;;;;;20903112;28;20545;-68
2021/06/23 19:55:39;;;;;;;0.40;0.40;;;22.50;99.90;;;;;;20897942;28;20351;-69
2021/06/23 20:05:45;;;;;;;2.33;1.40;;;22.30;99.90;;;;;;20897753;28;20306;-68
2021/06/23 20:15:50;;;;;;;1.23;1.13;;;22.20;99.90;;;;;;20897708;28;20197;-70
2021/06/23 20:25:53;;;;;;;5.00;2.47;;;22.30;99.90;;;;;;20920039;28;20472;-66
2021/06/23 20:35:59;;;;;;;6.77;3.13;;;22.00;99.90;;;;;;20879591;28;20620;-67
2021/06/23 20:46:03;;;;;;;3.37;2.67;;;21.50;99.90;;;;;;20892784;28;20249;-66
2021/06/23 20:56:11;;;;;;;4.93;4.30;;;21.20;99.90;;;;;;20899723;28;20318;-66
2021/06/23 21:06:16;;;;;;;6.97;5.17;;;21.20;99.90;;;;;;20920965;28;20229;-67
2021/06/23 21:16:21;;;;;;;10.20;7.00;;;21.00;99.90;;;;;;20923086;28;20202;-68
2021/06/23 21:26:25;;;;;;;16.20;9.77;;;20.90;99.90;;;;;;20972558;28;20228;-67
2021/06/23 21:36:32;;;;;;;58.07;34.43;;;20.60;99.90;;;;;;20989100;28;20208;-66
2021/06/23 21:46:38;;;;;;;63.70;31.90;;;20.50;99.90;;;;;;20988931;28;20577;-67
2021/06/23 21:56:43;;;;;;;23.63;11.40;;;20.40;99.90;;;;;;20987536;28;20197;-67
2021/06/23 22:06:47;;;;;;;33.37;13.97;;;20.30;99.90;;;;;;20987162;28;20232;-67
2021/06/23 22:16:52;;;;;;;24.07;11.97;;;20.30;99.90;;;;;;20986263;28;20197;-66
2021/06/23 22:26:55;;;;;;;16.87;11.90;;;20.30;99.90;;;;;;20920042;28;20221;-66
2021/06/23 22:37:05;;;;;;;25.27;11.10;;;20.20;99.90;;;;;;20901329;28;20203;-67
2021/06/23 22:47:17;;;;;;;9.57;6.20;;;20.40;99.90;;;;;;20904735;28;20780;-68
2021/06/23 22:57:22;;;;;;;16.13;9.17;;;20.00;99.90;;;;;;20897123;28;20204;-68
2021/06/23 23:07:27;;;;;;;8.53;4.70;;;20.00;99.90;;;;;;20838165;28;20564;-70
2021/06/23 23:17:33;;;;;;;13.30;6.80;;;20.00;99.90;;;;;;20819065;28;20201;-67
2021/06/23 23:27:37;;;;;;;12.40;5.47;;;19.80;99.90;;;;;;20818166;28;20221;-67
2021/06/23 23:37:43;;;;;;;7.97;4.70;;;19.90;99.90;;;;;;20800193;28;20564;-69
2021/06/23 23:47:47;;;;;;;12.40;4.60;;;20.10;99.90;;;;;;20817480;28;20281;-69
2021/06/23 23:57:52;;;;;;;10.47;7.23;;;20.20;99.90;;;;;;20814785;28;20205;-69
